sensor_id;sensor_type;location;lat;lon;timestamp;P1;durP1;ratioP1;P2;durP2;ratioP2
43678;SDS011;29279;50.858;4.392;2023-04-15T00:00:06;8.73;;;4.32;;
43678;SDS011;29279;50.858;4.392;2023-04-15T00:02:32;6.15;;;3.60;;
43678;SDS011;29279;50.858;4.392;2023-04-15T00:04:58;11.43;;;3.90;;
43678;SDS011;29279;50.858;4.392;2023-04-15T00:07:23;7.65;;;4.07;;
43678;SDS011;29279;50.858;4.392;2023-04-15T00:09:49;6.45;;;3.58;;
43678;SDS011;29279;50.858;4.392;2023-04-15T00:12:19;6.22;;;3.10;;
43678;SDS011;29279;50.858;4.392;2023-04-15T00:14:45;5.10;;;3.53;;
43678;SDS011;29279;50.858;4.392;2023-04-15T00:17:11;6.45;;;3.00;;
43678;SDS011;29279;50.858;4.392;2023-04-15T00:19:37;6.30;;;3.58;;
43678;SDS011;29279;50.858;4.392;2023-04-15T00:22:03;13.50;;;4.18;;
43678;SDS011;29279;50.858;4.392;2023-04-15T00:24:28;8.85;;;3.72;;
43678;SDS011;29279;50.858;4.392;2023-04-15T00:26:55;5.35;;;3.70;;
43678;SDS011;29279;50.858;4.392;2023-04-15T00:29:22;6.55;;;3.67;;
43678;SDS011;29279;50.858;4.392;2023-04-15T00:31:50;8.20;;;3.80;;
43678;SDS011;29279;50.858;4.392;2023-04-15T00:34:16;7.47;;;3.45;;
43678;SDS011;29279;50.858;4.392;2023-04-15T00:36:42;6.45;;;3.45;;
43678;SDS011;29279;50.858;4.392;2023-04-15T00:39:08;5.63;;;3.38;;
43678;SDS011;29279;50.858;4.392;2023-04-15T00:41:34;5.18;;;2.95;;
43678;SDS011;29279;50.858;4.392;2023-04-15T00:44:03;4.47;;;3.10;;
43678;SDS011;29279;50.858;4.392;2023-04-15T00:46:30;13.18;;;3.95;;
43678;SDS011;29279;50.858;4.392;2023-04-15T00:48:57;9.43;;;4.18;;
43678;SDS011;29279;50.858;4.392;2023-04-15T00:51:23;8.52;;;3.38;;
43678;SDS011;29279;50.858;4.392;2023-04-15T00:53:49;12.02;;;3.80;;
43678;SDS011;29279;50.858;4.392;2023-04-15T00:56:15;5.60;;;3.50;;
43678;SDS011;29279;50.858;4.392;2023-04-15T00:58:42;7.18;;;3.13;;
43678;SDS011;29279;50.858;4.392;2023-04-15T01:01:07;10.10;;;2.97;;
43678;SDS011;29279;50.858;4.392;2023-04-15T01:03:34;4.88;;;2.65;;
43678;SDS011;29279;50.858;4.392;2023-04-15T01:06:00;5.68;;;2.65;;
43678;SDS011;29279;50.858;4.392;2023-04-15T01:08:27;5.07;;;2.50;;
43678;SDS011;29279;50.858;4.392;2023-04-15T01:10:56;5.18;;;2.83;;
43678;SDS011;29279;50.858;4.392;2023-04-15T01:13:25;4.50;;;2.85;;
43678;SDS011;29279;50.858;4.392;2023-04-15T01:15:51;10.18;;;3.28;;
43678;SDS011;29279;50.858;4.392;2023-04-15T01:18:18;5.80;;;3.20;;
43678;SDS011;29279;50.858;4.392;2023-04-15T01:20:44;10.55;;;3.10;;
43678;SDS011;29279;50.858;4.392;2023-04-15T01:23:12;6.88;;;2.88;;
43678;SDS011;29279;50.858;4.392;2023-04-15T01:25:37;5.70;;;2.70;;
43678;SDS011;29279;50.858;4.392;2023-04-15T01:28:04;9.60;;;3.38;;
43678;SDS011;29279;50.858;4.392;2023-04-15T01:30:34;7.95;;;2.53;;
43678;SDS011;29279;50.858;4.392;2023-04-15T01:32:59;6.63;;;3.33;;
43678;SDS011;29279;50.858;4.392;2023-04-15T01:35:25;4.35;;;2.50;;
43678;SDS011;29279;50.858;4.392;2023-04-15T01:37:52;4.32;;;2.83;;
43678;SDS011;29279;50.858;4.392;2023-04-15T01:40:18;6.20;;;2.75;;
43678;SDS011;29279;50.858;4.392;2023-04-15T01:42:44;4.13;;;2.40;;
43678;SDS011;29279;50.858;4.392;2023-04-15T01:45:10;7.78;;;3.10;;
43678;SDS011;29279;50.858;4.392;2023-04-15T01:47:38;5.85;;;3.15;;
43678;SDS011;29279;50.858;4.392;2023-04-15T01:50:04;5.82;;;2.65;;
43678;SDS011;29279;50.858;4.392;2023-04-15T01:52:30;5.78;;;2.90;;
43678;SDS011;29279;50.858;4.392;2023-04-15T01:54:56;4.57;;;2.53;;
43678;SDS011;29279;50.858;4.392;2023-04-15T01:57:22;8.80;;;2.47;;
43678;SDS011;29279;50.858;4.392;2023-04-15T01:59:47;5.97;;;2.70;;
43678;SDS011;29279;50.858;4.392;2023-04-15T02:02:13;6.50;;;3.17;;
43678;SDS011;29279;50.858;4.392;2023-04-15T02:04:42;5.50;;;3.45;;
43678;SDS011;29279;50.858;4.392;2023-04-15T02:07:08;5.57;;;3.88;;
43678;SDS011;29279;50.858;4.392;2023-04-15T02:09:34;8.57;;;3.70;;
43678;SDS011;29279;50.858;4.392;2023-04-15T02:11:59;7.43;;;3.33;;
43678;SDS011;29279;50.858;4.392;2023-04-15T02:14:25;7.43;;;3.15;;
43678;SDS011;29279;50.858;4.392;2023-04-15T02:16:51;8.93;;;4.03;;
43678;SDS011;29279;50.858;4.392;2023-04-15T02:19:17;10.25;;;4.35;;
43678;SDS011;29279;50.858;4.392;2023-04-15T02:21:42;6.18;;;3.92;;
43678;SDS011;29279;50.858;4.392;2023-04-15T02:24:08;12.55;;;5.25;;
43678;SDS011;29279;50.858;4.392;2023-04-15T02:26:36;11.48;;;5.20;;
43678;SDS011;29279;50.858;4.392;2023-04-15T02:29:01;14.40;;;6.13;;
43678;SDS011;29279;50.858;4.392;2023-04-15T02:31:27;19.25;;;6.70;;
43678;SDS011;29279;50.858;4.392;2023-04-15T02:33:53;24.67;;;10.80;;
43678;SDS011;29279;50.858;4.392;2023-04-15T02:36:18;24.90;;;11.52;;
43678;SDS011;29279;50.858;4.392;2023-04-15T02:38:45;23.83;;;10.40;;
43678;SDS011;29279;50.858;4.392;2023-04-15T02:41:11;21.75;;;9.27;;
43678;SDS011;29279;50.858;4.392;2023-04-15T02:43:36;25.95;;;10.32;;
43678;SDS011;29279;50.858;4.392;2023-04-15T02:46:04;21.40;;;10.40;;
43678;SDS011;29279;50.858;4.392;2023-04-15T02:48:30;21.83;;;9.55;;
43678;SDS011;29279;50.858;4.392;2023-04-15T02:51:15;24.77;;;9.07;;
43678;SDS011;29279;50.858;4.392;2023-04-15T02:53:43;26.10;;;11.23;;
43678;SDS011;29279;50.858;4.392;2023-04-15T02:56:10;27.00;;;10.98;;
43678;SDS011;29279;50.858;4.392;2023-04-15T02:58:38;28.88;;;10.68;;
43678;SDS011;29279;50.858;4.392;2023-04-15T03:01:04;36.88;;;14.20;;
43678;SDS011;29279;50.858;4.392;2023-04-15T03:03:31;31.13;;;13.48;;
43678;SDS011;29279;50.858;4.392;2023-04-15T03:05:57;30.25;;;12.05;;
43678;SDS011;29279;50.858;4.392;2023-04-15T03:08:23;27.55;;;12.73;;
43678;SDS011;29279;50.858;4.392;2023-04-15T03:10:48;36.50;;;15.35;;
43678;SDS011;29279;50.858;4.392;2023-04-15T03:13:16;39.20;;;15.65;;
43678;SDS011;29279;50.858;4.392;2023-04-15T03:15:42;51.30;;;18.95;;
43678;SDS011;29279;50.858;4.392;2023-04-15T03:18:07;41.30;;;17.55;;
43678;SDS011;29279;50.858;4.392;2023-04-15T03:20:33;44.90;;;18.88;;
43678;SDS011;29279;50.858;4.392;2023-04-15T03:22:59;46.40;;;19.25;;
43678;SDS011;29279;50.858;4.392;2023-04-15T03:25:25;54.50;;;19.65;;
43678;SDS011;29279;50.858;4.392;2023-04-15T03:27:51;41.17;;;17.70;;
43678;SDS011;29279;50.858;4.392;2023-04-15T03:30:16;40.08;;;17.20;;
43678;SDS011;29279;50.858;4.392;2023-04-15T03:32:42;38.97;;;15.30;;
43678;SDS011;29279;50.858;4.392;2023-04-15T03:35:08;37.55;;;15.07;;
43678;SDS011;29279;50.858;4.392;2023-04-15T03:37:34;29.48;;;12.52;;
43678;SDS011;29279;50.858;4.392;2023-04-15T03:39:59;26.38;;;12.05;;
43678;SDS011;29279;50.858;4.392;2023-04-15T03:42:25;25.58;;;11.52;;
43678;SDS011;29279;50.858;4.392;2023-04-15T03:44:51;25.77;;;11.77;;
43678;SDS011;29279;50.858;4.392;2023-04-15T03:47:16;25.27;;;10.80;;
43678;SDS011;29279;50.858;4.392;2023-04-15T03:49:42;23.33;;;11.20;;
43678;SDS011;29279;50.858;4.392;2023-04-15T03:52:08;19.50;;;10.70;;
43678;SDS011;29279;50.858;4.392;2023-04-15T03:54:33;22.30;;;9.50;;
43678;SDS011;29279;50.858;4.392;2023-04-15T03:56:59;16.73;;;10.10;;
43678;SDS011;29279;50.858;4.392;2023-04-15T03:59:25;18.92;;;9.07;;
43678;SDS011;29279;50.858;4.392;2023-04-15T04:01:51;22.27;;;9.48;;
43678;SDS011;29279;50.858;4.392;2023-04-15T04:04:16;17.90;;;9.93;;
43678;SDS011;29279;50.858;4.392;2023-04-15T04:06:42;19.90;;;9.68;;
43678;SDS011;29279;50.858;4.392;2023-04-15T04:09:11;20.88;;;9.02;;
43678;SDS011;29279;50.858;4.392;2023-04-15T04:11:37;19.38;;;8.57;;
43678;SDS011;29279;50.858;4.392;2023-04-15T04:14:02;23.98;;;10.10;;
43678;SDS011;29279;50.858;4.392;2023-04-15T04:16:28;14.95;;;8.63;;
43678;SDS011;29279;50.858;4.392;2023-04-15T04:18:54;21.27;;;9.52;;
43678;SDS011;29279;50.858;4.392;2023-04-15T04:21:20;18.58;;;9.27;;
43678;SDS011;29279;50.858;4.392;2023-04-15T04:23:46;17.30;;;9.60;;
43678;SDS011;29279;50.858;4.392;2023-04-15T04:26:11;19.48;;;9.85;;
43678;SDS011;29279;50.858;4.392;2023-04-15T04:28:37;16.02;;;8.98;;
43678;SDS011;29279;50.858;4.392;2023-04-15T04:31:06;14.70;;;7.93;;
43678;SDS011;29279;50.858;4.392;2023-04-15T04:33:32;14.60;;;6.80;;
43678;SDS011;29279;50.858;4.392;2023-04-15T04:35:57;18.55;;;8.48;;
43678;SDS011;29279;50.858;4.392;2023-04-15T04:38:23;16.08;;;8.13;;
43678;SDS011;29279;50.858;4.392;2023-04-15T04:40:49;21.95;;;8.55;;
43678;SDS011;29279;50.858;4.392;2023-04-15T04:43:14;17.63;;;8.75;;
43678;SDS011;29279;50.858;4.392;2023-04-15T04:45:40;16.92;;;8.60;;
43678;SDS011;29279;50.858;4.392;2023-04-15T04:48:06;20.10;;;8.68;;
43678;SDS011;29279;50.858;4.392;2023-04-15T04:50:34;19.02;;;7.38;;
43678;SDS011;29279;50.858;4.392;2023-04-15T04:53:00;14.95;;;8.20;;
43678;SDS011;29279;50.858;4.392;2023-04-15T04:55:25;14.80;;;7.13;;
43678;SDS011;29279;50.858;4.392;2023-04-15T04:57:51;16.50;;;8.15;;
43678;SDS011;29279;50.858;4.392;2023-04-15T05:00:17;16.60;;;8.57;;
43678;SDS011;29279;50.858;4.392;2023-04-15T05:02:43;15.38;;;7.70;;
43678;SDS011;29279;50.858;4.392;2023-04-15T05:05:09;22.85;;;8.73;;
43678;SDS011;29279;50.858;4.392;2023-04-15T05:07:36;14.90;;;7.35;;
43678;SDS011;29279;50.858;4.392;2023-04-15T05:10:02;14.18;;;7.47;;
43678;SDS011;29279;50.858;4.392;2023-04-15T05:12:28;17.08;;;8.10;;
43678;SDS011;29279;50.858;4.392;2023-04-15T05:14:54;13.68;;;7.53;;
43678;SDS011;29279;50.858;4.392;2023-04-15T05:17:20;13.85;;;7.40;;
43678;SDS011;29279;50.858;4.392;2023-04-15T05:19:45;17.02;;;6.65;;
43678;SDS011;29279;50.858;4.392;2023-04-15T05:22:11;18.17;;;8.23;;
43678;SDS011;29279;50.858;4.392;2023-04-15T05:24:37;15.82;;;7.47;;
43678;SDS011;29279;50.858;4.392;2023-04-15T05:27:02;18.05;;;7.35;;
43678;SDS011;29279;50.858;4.392;2023-04-15T05:29:28;19.65;;;9.20;;
43678;SDS011;29279;50.858;4.392;2023-04-15T05:31:54;14.90;;;6.78;;
43678;SDS011;29279;50.858;4.392;2023-04-15T05:34:20;18.35;;;7.10;;
43678;SDS011;29279;50.858;4.392;2023-04-15T05:36:46;11.23;;;6.38;;
43678;SDS011;29279;50.858;4.392;2023-04-15T05:39:12;17.13;;;7.03;;
43678;SDS011;29279;50.858;4.392;2023-04-15T05:41:37;17.40;;;7.57;;
43678;SDS011;29279;50.858;4.392;2023-04-15T05:44:03;13.68;;;6.95;;
43678;SDS011;29279;50.858;4.392;2023-04-15T05:46:29;14.73;;;7.18;;
43678;SDS011;29279;50.858;4.392;2023-04-15T05:48:55;13.60;;;7.10;;
43678;SDS011;29279;50.858;4.392;2023-04-15T05:51:21;16.85;;;7.95;;
43678;SDS011;29279;50.858;4.392;2023-04-15T05:53:46;15.57;;;7.00;;
43678;SDS011;29279;50.858;4.392;2023-04-15T05:56:12;17.17;;;7.30;;
43678;SDS011;29279;50.858;4.392;2023-04-15T05:58:38;19.50;;;8.05;;
43678;SDS011;29279;50.858;4.392;2023-04-15T06:01:03;16.85;;;8.00;;
43678;SDS011;29279;50.858;4.392;2023-04-15T06:03:29;12.82;;;7.65;;
43678;SDS011;29279;50.858;4.392;2023-04-15T06:05:55;16.60;;;8.30;;
43678;SDS011;29279;50.858;4.392;2023-04-15T06:08:21;18.77;;;7.47;;
43678;SDS011;29279;50.858;4.392;2023-04-15T06:10:46;13.57;;;7.60;;
43678;SDS011;29279;50.858;4.392;2023-04-15T06:13:12;17.58;;;7.90;;
43678;SDS011;29279;50.858;4.392;2023-04-15T06:15:38;18.67;;;7.35;;
43678;SDS011;29279;50.858;4.392;2023-04-15T06:18:03;14.80;;;7.40;;
43678;SDS011;29279;50.858;4.392;2023-04-15T06:20:29;14.95;;;7.20;;
43678;SDS011;29279;50.858;4.392;2023-04-15T06:22:56;17.67;;;7.93;;
43678;SDS011;29279;50.858;4.392;2023-04-15T06:25:21;16.50;;;7.10;;
43678;SDS011;29279;50.858;4.392;2023-04-15T06:27:47;19.48;;;7.97;;
43678;SDS011;29279;50.858;4.392;2023-04-15T06:30:13;17.33;;;7.47;;
43678;SDS011;29279;50.858;4.392;2023-04-15T06:32:39;17.30;;;7.82;;
43678;SDS011;29279;50.858;4.392;2023-04-15T06:35:05;20.17;;;8.57;;
43678;SDS011;29279;50.858;4.392;2023-04-15T06:37:30;16.48;;;8.07;;
43678;SDS011;29279;50.858;4.392;2023-04-15T06:39:56;18.25;;;7.55;;
43678;SDS011;29279;50.858;4.392;2023-04-15T06:42:22;19.42;;;6.97;;
43678;SDS011;29279;50.858;4.392;2023-04-15T06:44:48;13.95;;;7.00;;
43678;SDS011;29279;50.858;4.392;2023-04-15T06:47:14;17.58;;;6.15;;
43678;SDS011;29279;50.858;4.392;2023-04-15T06:49:40;12.60;;;6.13;;
43678;SDS011;29279;50.858;4.392;2023-04-15T06:52:07;18.50;;;6.88;;
43678;SDS011;29279;50.858;4.392;2023-04-15T06:54:34;14.73;;;7.13;;
43678;SDS011;29279;50.858;4.392;2023-04-15T06:56:59;16.13;;;6.05;;
43678;SDS011;29279;50.858;4.392;2023-04-15T06:59:25;14.35;;;7.25;;
43678;SDS011;29279;50.858;4.392;2023-04-15T07:01:51;11.52;;;6.20;;
43678;SDS011;29279;50.858;4.392;2023-04-15T07:04:17;18.10;;;6.25;;
43678;SDS011;29279;50.858;4.392;2023-04-15T07:06:43;13.40;;;7.03;;
43678;SDS011;29279;50.858;4.392;2023-04-15T07:09:09;19.98;;;6.60;;
43678;SDS011;29279;50.858;4.392;2023-04-15T07:11:34;16.65;;;6.82;;
43678;SDS011;29279;50.858;4.392;2023-04-15T07:14:00;14.32;;;6.70;;
43678;SDS011;29279;50.858;4.392;2023-04-15T07:16:26;11.32;;;6.20;;
43678;SDS011;29279;50.858;4.392;2023-04-15T07:18:53;12.57;;;6.82;;
43678;SDS011;29279;50.858;4.392;2023-04-15T07:21:19;17.33;;;6.90;;
43678;SDS011;29279;50.858;4.392;2023-04-15T07:23:45;15.00;;;6.80;;
43678;SDS011;29279;50.858;4.392;2023-04-15T07:26:11;18.55;;;7.90;;
43678;SDS011;29279;50.858;4.392;2023-04-15T07:28:37;23.80;;;6.80;;
43678;SDS011;29279;50.858;4.392;2023-04-15T07:31:02;23.67;;;8.00;;
43678;SDS011;29279;50.858;4.392;2023-04-15T07:33:28;17.48;;;7.70;;
43678;SDS011;29279;50.858;4.392;2023-04-15T07:35:54;19.92;;;8.02;;
43678;SDS011;29279;50.858;4.392;2023-04-15T07:38:20;21.90;;;7.70;;
43678;SDS011;29279;50.858;4.392;2023-04-15T07:40:47;13.27;;;6.75;;
43678;SDS011;29279;50.858;4.392;2023-04-15T07:43:13;14.05;;;7.60;;
43678;SDS011;29279;50.858;4.392;2023-04-15T07:45:39;15.98;;;7.97;;
43678;SDS011;29279;50.858;4.392;2023-04-15T07:48:05;16.48;;;7.97;;
43678;SDS011;29279;50.858;4.392;2023-04-15T07:50:34;17.08;;;8.30;;
43678;SDS011;29279;50.858;4.392;2023-04-15T07:52:59;23.42;;;5.75;;
43678;SDS011;29279;50.858;4.392;2023-04-15T07:55:25;17.95;;;8.50;;
43678;SDS011;29279;50.858;4.392;2023-04-15T07:57:51;20.65;;;8.63;;
43678;SDS011;29279;50.858;4.392;2023-04-15T08:00:19;21.88;;;9.60;;
43678;SDS011;29279;50.858;4.392;2023-04-15T08:02:45;21.60;;;9.60;;
43678;SDS011;29279;50.858;4.392;2023-04-15T08:05:12;18.77;;;8.90;;
43678;SDS011;29279;50.858;4.392;2023-04-15T08:07:38;15.35;;;8.73;;
43678;SDS011;29279;50.858;4.392;2023-04-15T08:10:05;18.55;;;9.45;;
43678;SDS011;29279;50.858;4.392;2023-04-15T08:12:34;18.05;;;9.80;;
43678;SDS011;29279;50.858;4.392;2023-04-15T08:14:59;19.60;;;9.38;;
43678;SDS011;29279;50.858;4.392;2023-04-15T08:17:26;15.43;;;9.00;;
43678;SDS011;29279;50.858;4.392;2023-04-15T08:19:52;22.73;;;9.35;;
43678;SDS011;29279;50.858;4.392;2023-04-15T08:22:18;14.70;;;8.32;;
43678;SDS011;29279;50.858;4.392;2023-04-15T08:24:43;19.92;;;9.38;;
43678;SDS011;29279;50.858;4.392;2023-04-15T08:27:09;19.10;;;9.05;;
43678;SDS011;29279;50.858;4.392;2023-04-15T08:29:35;27.10;;;9.75;;
43678;SDS011;29279;50.858;4.392;2023-04-15T08:32:01;19.92;;;9.45;;
43678;SDS011;29279;50.858;4.392;2023-04-15T08:34:27;19.65;;;9.45;;
43678;SDS011;29279;50.858;4.392;2023-04-15T08:36:53;19.75;;;10.15;;
43678;SDS011;29279;50.858;4.392;2023-04-15T08:39:19;14.32;;;9.43;;
43678;SDS011;29279;50.858;4.392;2023-04-15T08:41:45;23.50;;;10.25;;
43678;SDS011;29279;50.858;4.392;2023-04-15T08:44:12;24.70;;;6.65;;
43678;SDS011;29279;50.858;4.392;2023-04-15T08:46:38;15.52;;;5.72;;
43678;SDS011;29279;50.858;4.392;2023-04-15T08:49:07;22.40;;;9.55;;
43678;SDS011;29279;50.858;4.392;2023-04-15T08:51:36;14.88;;;8.90;;
43678;SDS011;29279;50.858;4.392;2023-04-15T08:54:04;17.23;;;9.40;;
43678;SDS011;29279;50.858;4.392;2023-04-15T08:56:30;16.90;;;8.38;;
43678;SDS011;29279;50.858;4.392;2023-04-15T08:58:57;19.70;;;9.60;;
43678;SDS011;29279;50.858;4.392;2023-04-15T09:01:24;14.98;;;8.25;;
43678;SDS011;29279;50.858;4.392;2023-04-15T09:03:51;23.67;;;10.10;;
43678;SDS011;29279;50.858;4.392;2023-04-15T09:06:19;24.42;;;9.10;;
43678;SDS011;29279;50.858;4.392;2023-04-15T09:08:45;18.58;;;8.82;;
43678;SDS011;29279;50.858;4.392;2023-04-15T09:11:11;16.80;;;9.60;;
43678;SDS011;29279;50.858;4.392;2023-04-15T09:13:37;14.10;;;7.97;;
43678;SDS011;29279;50.858;4.392;2023-04-15T09:16:04;15.27;;;8.68;;
43678;SDS011;29279;50.858;4.392;2023-04-15T09:18:31;18.48;;;8.77;;
43678;SDS011;29279;50.858;4.392;2023-04-15T09:21:14;18.83;;;8.93;;
43678;SDS011;29279;50.858;4.392;2023-04-15T09:23:53;19.25;;;7.60;;
43678;SDS011;29279;50.858;4.392;2023-04-15T09:26:35;16.50;;;6.40;;
43678;SDS011;29279;50.858;4.392;2023-04-15T09:29:04;11.20;;;5.50;;
43678;SDS011;29279;50.858;4.392;2023-04-15T09:31:31;15.60;;;5.13;;
43678;SDS011;29279;50.858;4.392;2023-04-15T09:33:57;12.55;;;5.55;;
43678;SDS011;29279;50.858;4.392;2023-04-15T09:36:23;15.10;;;5.90;;
43678;SDS011;29279;50.858;4.392;2023-04-15T09:38:58;11.65;;;5.50;;
43678;SDS011;29279;50.858;4.392;2023-04-15T09:41:25;12.07;;;5.50;;
43678;SDS011;29279;50.858;4.392;2023-04-15T09:43:51;16.17;;;5.65;;
43678;SDS011;29279;50.858;4.392;2023-04-15T09:46:17;7.68;;;5.43;;
43678;SDS011;29279;50.858;4.392;2023-04-15T09:48:43;14.40;;;5.97;;
43678;SDS011;29279;50.858;4.392;2023-04-15T09:51:08;10.77;;;5.60;;
43678;SDS011;29279;50.858;4.392;2023-04-15T09:53:35;11.23;;;6.35;;
43678;SDS011;29279;50.858;4.392;2023-04-15T09:56:02;8.25;;;5.25;;
43678;SDS011;29279;50.858;4.392;2023-04-15T09:58:32;9.20;;;4.95;;
43678;SDS011;29279;50.858;4.392;2023-04-15T10:00:59;13.73;;;5.50;;
43678;SDS011;29279;50.858;4.392;2023-04-15T10:03:28;7.82;;;4.78;;
43678;SDS011;29279;50.858;4.392;2023-04-15T10:05:56;8.65;;;5.07;;
43678;SDS011;29279;50.858;4.392;2023-04-15T10:08:25;11.02;;;5.32;;
43678;SDS011;29279;50.858;4.392;2023-04-15T10:10:52;10.05;;;5.45;;
43678;SDS011;29279;50.858;4.392;2023-04-15T10:13:23;8.32;;;5.07;;
43678;SDS011;29279;50.858;4.392;2023-04-15T10:15:54;12.43;;;5.93;;
43678;SDS011;29279;50.858;4.392;2023-04-15T10:18:25;8.63;;;5.03;;
43678;SDS011;29279;50.858;4.392;2023-04-15T10:20:53;7.53;;;5.22;;
43678;SDS011;29279;50.858;4.392;2023-04-15T10:23:19;15.02;;;4.63;;
43678;SDS011;29279;50.858;4.392;2023-04-15T10:25:50;7.78;;;4.80;;
43678;SDS011;29279;50.858;4.392;2023-04-15T10:28:20;7.15;;;4.50;;
43678;SDS011;29279;50.858;4.392;2023-04-15T10:30:48;9.15;;;4.72;;
43678;SDS011;29279;50.858;4.392;2023-04-15T10:33:16;8.55;;;5.18;;
43678;SDS011;29279;50.858;4.392;2023-04-15T10:35:46;8.02;;;4.65;;
43678;SDS011;29279;50.858;4.392;2023-04-15T10:43:37;10.35;;;4.60;;
43678;SDS011;29279;50.858;4.392;2023-04-15T10:46:04;6.15;;;3.50;;
43678;SDS011;29279;50.858;4.392;2023-04-15T10:48:30;7.05;;;3.08;;
43678;SDS011;29279;50.858;4.392;2023-04-15T10:50:57;8.43;;;3.42;;
43678;SDS011;29279;50.858;4.392;2023-04-15T10:53:29;6.40;;;3.20;;
43678;SDS011;29279;50.858;4.392;2023-04-15T10:55:58;8.43;;;3.05;;
43678;SDS011;29279;50.858;4.392;2023-04-15T10:58:24;5.78;;;3.25;;
43678;SDS011;29279;50.858;4.392;2023-04-15T11:00:52;5.07;;;3.08;;
43678;SDS011;29279;50.858;4.392;2023-04-15T11:03:37;6.97;;;2.90;;
43678;SDS011;29279;50.858;4.392;2023-04-15T11:06:06;4.78;;;2.60;;
43678;SDS011;29279;50.858;4.392;2023-04-15T11:08:51;5.05;;;2.63;;
43678;SDS011;29279;50.858;4.392;2023-04-15T11:11:17;6.40;;;3.03;;
43678;SDS011;29279;50.858;4.392;2023-04-15T11:13:47;7.95;;;2.95;;
43678;SDS011;29279;50.858;4.392;2023-04-15T11:16:14;5.13;;;2.97;;
43678;SDS011;29279;50.858;4.392;2023-04-15T11:18:40;5.88;;;2.90;;
43678;SDS011;29279;50.858;4.392;2023-04-15T11:21:06;5.68;;;3.50;;
43678;SDS011;29279;50.858;4.392;2023-04-15T11:23:34;8.10;;;4.10;;
43678;SDS011;29279;50.858;4.392;2023-04-15T11:26:05;5.40;;;3.42;;
43678;SDS011;29279;50.858;4.392;2023-04-15T11:28:39;4.97;;;3.13;;
43678;SDS011;29279;50.858;4.392;2023-04-15T11:31:18;10.07;;;2.72;;
43678;SDS011;29279;50.858;4.392;2023-04-15T11:33:45;4.25;;;2.92;;
43678;SDS011;29279;50.858;4.392;2023-04-15T11:36:17;8.45;;;2.67;;
43678;SDS011;29279;50.858;4.392;2023-04-15T11:38:43;5.05;;;2.58;;
43678;SDS011;29279;50.858;4.392;2023-04-15T11:41:11;7.05;;;2.75;;
43678;SDS011;29279;50.858;4.392;2023-04-15T11:43:37;7.45;;;2.65;;
43678;SDS011;29279;50.858;4.392;2023-04-15T11:46:03;4.22;;;2.22;;
43678;SDS011;29279;50.858;4.392;2023-04-15T11:48:33;3.63;;;1.95;;
43678;SDS011;29279;50.858;4.392;2023-04-15T11:51:01;2.10;;;1.40;;
43678;SDS011;29279;50.858;4.392;2023-04-15T11:53:44;6.00;;;2.20;;
43678;SDS011;29279;50.858;4.392;2023-04-15T11:56:21;4.50;;;3.15;;
43678;SDS011;29279;50.858;4.392;2023-04-15T11:58:51;7.55;;;2.80;;
43678;SDS011;29279;50.858;4.392;2023-04-15T12:01:41;5.47;;;3.25;;
43678;SDS011;29279;50.858;4.392;2023-04-15T12:04:14;5.03;;;3.10;;
43678;SDS011;29279;50.858;4.392;2023-04-15T12:06:46;4.03;;;2.78;;
43678;SDS011;29279;50.858;4.392;2023-04-15T12:09:13;3.58;;;2.10;;
43678;SDS011;29279;50.858;4.392;2023-04-15T12:14:07;4.97;;;2.53;;
43678;SDS011;29279;50.858;4.392;2023-04-15T12:16:49;7.95;;;2.70;;
43678;SDS011;29279;50.858;4.392;2023-04-15T12:19:28;5.13;;;2.40;;
43678;SDS011;29279;50.858;4.392;2023-04-15T12:21:57;6.35;;;2.70;;
43678;SDS011;29279;50.858;4.392;2023-04-15T12:24:25;6.25;;;2.90;;
43678;SDS011;29279;50.858;4.392;2023-04-15T12:26:51;4.63;;;2.83;;
43678;SDS011;29279;50.858;4.392;2023-04-15T12:29:19;5.53;;;2.63;;
43678;SDS011;29279;50.858;4.392;2023-04-15T12:31:53;5.40;;;2.97;;
43678;SDS011;29279;50.858;4.392;2023-04-15T12:34:36;5.95;;;2.53;;
43678;SDS011;29279;50.858;4.392;2023-04-15T12:37:04;3.38;;;2.03;;
43678;SDS011;29279;50.858;4.392;2023-04-15T12:39:34;6.03;;;2.00;;
43678;SDS011;29279;50.858;4.392;2023-04-15T12:42:00;6.15;;;2.03;;
43678;SDS011;29279;50.858;4.392;2023-04-15T12:44:27;2.60;;;2.08;;
43678;SDS011;29279;50.858;4.392;2023-04-15T12:46:53;5.15;;;2.05;;
43678;SDS011;29279;50.858;4.392;2023-04-15T12:49:19;4.47;;;2.38;;
43678;SDS011;29279;50.858;4.392;2023-04-15T12:51:47;4.63;;;2.10;;
43678;SDS011;29279;50.858;4.392;2023-04-15T12:54:15;5.60;;;1.85;;
43678;SDS011;29279;50.858;4.392;2023-04-15T12:56:41;4.20;;;1.48;;
43678;SDS011;29279;50.858;4.392;2023-04-15T12:59:07;2.78;;;2.00;;
43678;SDS011;29279;50.858;4.392;2023-04-15T13:01:33;5.03;;;2.30;;
43678;SDS011;29279;50.858;4.392;2023-04-15T13:04:02;4.22;;;2.40;;
43678;SDS011;29279;50.858;4.392;2023-04-15T13:06:27;5.38;;;2.17;;
43678;SDS011;29279;50.858;4.392;2023-04-15T13:08:53;3.95;;;2.30;;
43678;SDS011;29279;50.858;4.392;2023-04-15T13:11:20;4.60;;;2.20;;
43678;SDS011;29279;50.858;4.392;2023-04-15T13:13:49;6.35;;;2.60;;
43678;SDS011;29279;50.858;4.392;2023-04-15T13:16:16;8.43;;;2.22;;
43678;SDS011;29279;50.858;4.392;2023-04-15T13:18:43;5.93;;;2.50;;
43678;SDS011;29279;50.858;4.392;2023-04-15T13:21:10;6.22;;;2.85;;
43678;SDS011;29279;50.858;4.392;2023-04-15T13:23:42;7.40;;;3.20;;
43678;SDS011;29279;50.858;4.392;2023-04-15T13:26:08;6.38;;;2.50;;
43678;SDS011;29279;50.858;4.392;2023-04-15T13:28:34;6.07;;;2.95;;
43678;SDS011;29279;50.858;4.392;2023-04-15T13:31:00;4.63;;;2.47;;
43678;SDS011;29279;50.858;4.392;2023-04-15T13:33:26;8.07;;;2.45;;
43678;SDS011;29279;50.858;4.392;2023-04-15T13:35:51;9.13;;;2.97;;
43678;SDS011;29279;50.858;4.392;2023-04-15T13:38:17;4.43;;;2.30;;
43678;SDS011;29279;50.858;4.392;2023-04-15T13:40:43;7.78;;;2.85;;
43678;SDS011;29279;50.858;4.392;2023-04-15T13:43:09;5.20;;;2.33;;
43678;SDS011;29279;50.858;4.392;2023-04-15T13:45:35;8.55;;;2.33;;
43678;SDS011;29279;50.858;4.392;2023-04-15T13:48:01;5.55;;;2.05;;
43678;SDS011;29279;50.858;4.392;2023-04-15T13:50:27;5.13;;;2.05;;
43678;SDS011;29279;50.858;4.392;2023-04-15T13:52:53;6.68;;;1.85;;
43678;SDS011;29279;50.858;4.392;2023-04-15T13:55:18;5.93;;;2.08;;
43678;SDS011;29279;50.858;4.392;2023-04-15T13:57:44;5.65;;;1.88;;
43678;SDS011;29279;50.858;4.392;2023-04-15T14:00:10;5.03;;;1.63;;
43678;SDS011;29279;50.858;4.392;2023-04-15T14:02:36;6.95;;;2.00;;
43678;SDS011;29279;50.858;4.392;2023-04-15T14:05:02;4.53;;;1.80;;
43678;SDS011;29279;50.858;4.392;2023-04-15T14:07:28;5.50;;;1.73;;
43678;SDS011;29279;50.858;4.392;2023-04-15T14:09:54;4.82;;;1.83;;
43678;SDS011;29279;50.858;4.392;2023-04-15T14:12:20;4.80;;;1.90;;
43678;SDS011;29279;50.858;4.392;2023-04-15T14:14:46;11.52;;;2.38;;
43678;SDS011;29279;50.858;4.392;2023-04-15T14:17:12;5.45;;;2.30;;
43678;SDS011;29279;50.858;4.392;2023-04-15T14:19:38;5.78;;;2.33;;
43678;SDS011;29279;50.858;4.392;2023-04-15T14:22:03;10.85;;;2.45;;
43678;SDS011;29279;50.858;4.392;2023-04-15T14:24:30;7.07;;;2.45;;
43678;SDS011;29279;50.858;4.392;2023-04-15T14:26:55;7.85;;;2.35;;
43678;SDS011;29279;50.858;4.392;2023-04-15T14:29:22;3.90;;;1.80;;
43678;SDS011;29279;50.858;4.392;2023-04-15T14:31:48;3.15;;;1.58;;
43678;SDS011;29279;50.858;4.392;2023-04-15T14:34:14;4.18;;;1.30;;
43678;SDS011;29279;50.858;4.392;2023-04-15T14:36:41;3.78;;;1.20;;
43678;SDS011;29279;50.858;4.392;2023-04-15T14:39:06;4.13;;;1.30;;
43678;SDS011;29279;50.858;4.392;2023-04-15T14:41:33;6.35;;;1.38;;
43678;SDS011;29279;50.858;4.392;2023-04-15T14:43:59;3.45;;;1.35;;